Terminal Aerodrome Forecast
Issued by NWS Jackson, MS

Home | Current Version | Previous Version | Text Only | Print | Product List | Glossary On
Versions: 1 2 3 4 5 6 7 8 9 10 11 12 13
000
FTUS44 KJAN 051122
TAFMEI
TAF
KMEI 051122Z 0512/0612 01008KT P6SM VCSH OVC004
     FM051400 05005KT 3SM RA BR VCTS BKN003 OVC010CB
     FM052300 10009KT 3SM BR VCTS BKN003 OVC010CB
     FM060600 17010KT 2SM BR VCSH OVC003=

USA.gov is the U.S. government's official web portal to all federal, state and local government web resources and services.